createdAt,value
2017-07-05T00:01:52.681Z,9.00
2017-07-05T00:04:20.612Z,8.30
2017-07-05T00:06:48.535Z,8.60
2017-07-05T00:09:16.472Z,8.50
2017-07-05T00:11:44.398Z,8.13
2017-07-05T00:14:12.319Z,7.53
2017-07-05T00:16:40.256Z,8.00
2017-07-05T00:19:08.183Z,8.10
2017-07-05T00:21:36.117Z,8.20
2017-07-05T00:24:04.018Z,8.90
2017-07-05T00:26:31.947Z,8.20
2017-07-05T00:28:59.886Z,8.20
2017-07-05T00:31:27.809Z,8.53
2017-07-05T00:33:55.759Z,8.70
2017-07-05T00:36:23.682Z,8.40
2017-07-05T00:38:51.606Z,8.57
2017-07-05T00:41:19.563Z,7.93
2017-07-05T00:43:47.477Z,8.93
2017-07-05T00:46:15.415Z,7.90
2017-07-05T00:48:43.342Z,8.20
2017-07-05T00:51:11.272Z,8.00
2017-07-05T00:53:39.210Z,8.00
2017-07-05T00:56:07.134Z,8.00
2017-07-05T00:58:35.066Z,8.20
2017-07-05T01:01:03.015Z,8.40
2017-07-05T01:03:30.945Z,8.37
2017-07-05T01:05:58.899Z,8.87
2017-07-05T01:08:26.838Z,9.20
2017-07-05T01:10:54.773Z,8.20
2017-07-05T01:13:22.685Z,8.03
2017-07-05T01:15:50.594Z,8.33
2017-07-05T01:18:18.534Z,9.10
2017-07-05T01:20:46.460Z,8.30
2017-07-05T01:23:14.398Z,8.47
2017-07-05T01:25:42.330Z,8.57
2017-07-05T01:28:10.263Z,8.50
2017-07-05T01:30:38.179Z,8.20
2017-07-05T01:33:06.113Z,8.43
2017-07-05T01:35:34.074Z,8.30
2017-07-05T01:38:02.008Z,8.80
2017-07-05T01:40:29.936Z,8.30
2017-07-05T01:42:57.880Z,8.57
2017-07-05T01:45:25.797Z,8.23
2017-07-05T01:47:53.739Z,8.17
2017-07-05T01:50:21.683Z,8.10
2017-07-05T01:52:49.650Z,9.50
2017-07-05T01:55:17.589Z,8.60
2017-07-05T01:57:45.518Z,9.00
2017-07-05T02:00:13.457Z,9.60
2017-07-05T02:02:41.376Z,8.83
2017-07-05T02:05:09.321Z,7.90
2017-07-05T02:07:37.244Z,8.67
2017-07-05T02:10:05.171Z,8.67
2017-07-05T02:12:33.125Z,8.20
2017-07-05T02:15:01.045Z,9.20
2017-07-05T02:17:29.001Z,7.80
2017-07-05T02:19:56.921Z,8.27
2017-07-05T02:22:24.853Z,8.53
2017-07-05T02:24:52.802Z,8.80
2017-07-05T02:27:20.735Z,8.13
2017-07-05T02:29:48.662Z,8.23
2017-07-05T02:32:16.596Z,8.30
2017-07-05T02:34:44.517Z,8.63
2017-07-05T02:37:12.431Z,9.07
2017-07-05T02:39:40.364Z,8.50
2017-07-05T02:42:08.309Z,8.20
2017-07-05T02:44:36.250Z,8.57
2017-07-05T02:47:04.188Z,8.77
2017-07-05T02:49:32.121Z,9.10
2017-07-05T02:52:00.038Z,8.97
2017-07-05T02:54:28.435Z,8.80
2017-07-05T02:56:56.406Z,8.57
2017-07-05T02:59:24.329Z,8.80
2017-07-05T03:01:53.022Z,9.87
2017-07-05T03:04:20.964Z,8.67
2017-07-05T03:06:48.880Z,8.60
2017-07-05T03:09:16.838Z,9.10
2017-07-05T03:11:44.777Z,9.07
2017-07-05T03:14:12.718Z,9.80
2017-07-05T03:16:40.673Z,9.80
2017-07-05T03:19:08.627Z,9.27
2017-07-05T03:21:36.548Z,9.23
2017-07-05T03:24:04.489Z,9.67
2017-07-05T03:26:32.413Z,9.07
2017-07-05T03:29:00.352Z,8.90
2017-07-05T03:31:28.265Z,9.73
2017-07-05T03:33:56.221Z,9.67
2017-07-05T03:36:24.140Z,9.30
2017-07-05T03:38:52.074Z,9.30
2017-07-05T03:41:20.017Z,9.33
2017-07-05T03:43:47.945Z,9.17
2017-07-05T03:46:15.879Z,9.27
2017-07-05T03:48:43.803Z,9.37
2017-07-05T03:51:11.710Z,9.27
2017-07-05T03:53:39.670Z,9.77
2017-07-05T03:56:07.606Z,9.70
2017-07-05T03:58:35.528Z,9.60
2017-07-05T04:01:03.448Z,9.37
2017-07-05T04:03:31.368Z,9.30
2017-07-05T04:05:59.343Z,9.53
2017-07-05T04:08:27.309Z,9.40
2017-07-05T04:10:55.234Z,9.50
2017-07-05T04:13:23.161Z,9.80
2017-07-05T04:15:51.093Z,9.33
2017-07-05T04:18:19.017Z,9.40
2017-07-05T04:20:47.054Z,8.90
2017-07-05T04:23:14.993Z,9.67
2017-07-05T04:25:42.909Z,9.27
2017-07-05T04:28:10.844Z,8.90
2017-07-05T04:30:38.773Z,9.40
2017-07-05T04:33:06.698Z,8.97
2017-07-05T04:35:34.635Z,9.30
2017-07-05T04:38:02.564Z,9.53
2017-07-05T04:40:30.532Z,11.33
2017-07-05T04:42:58.468Z,7.90
2017-07-05T04:45:26.399Z,9.20
2017-07-05T04:47:54.341Z,9.13
2017-07-05T04:50:22.266Z,9.27
2017-07-05T04:52:50.194Z,8.50
2017-07-05T04:55:18.114Z,8.97
2017-07-05T04:57:46.056Z,8.90
2017-07-05T05:00:14.003Z,8.57
2017-07-05T05:02:41.909Z,8.83
2017-07-05T05:05:09.839Z,9.00
2017-07-05T05:07:37.775Z,9.23
2017-07-05T05:10:05.718Z,9.13
2017-07-05T05:12:33.669Z,8.80
2017-07-05T05:15:01.588Z,9.60
2017-07-05T05:17:29.519Z,8.40
2017-07-05T05:19:57.462Z,8.80
2017-07-05T05:22:25.393Z,8.70
2017-07-05T05:24:53.329Z,9.00
2017-07-05T05:27:21.240Z,9.00
2017-07-05T05:29:49.207Z,9.00
2017-07-05T05:32:17.156Z,8.50
2017-07-05T05:34:45.095Z,8.73
2017-07-05T05:37:13.032Z,9.10
2017-07-05T05:39:40.969Z,8.77
2017-07-05T05:42:08.899Z,10.50
2017-07-05T05:44:36.825Z,9.27
2017-07-05T05:47:04.774Z,9.20
2017-07-05T05:49:32.712Z,8.87
2017-07-05T05:52:01.158Z,8.60
2017-07-05T05:54:29.083Z,8.57
2017-07-05T05:56:57.043Z,8.57
2017-07-05T05:59:25.466Z,7.90
2017-07-05T06:01:53.417Z,9.53
2017-07-05T06:04:21.362Z,9.00
2017-07-05T06:06:49.296Z,8.90
2017-07-05T06:09:17.218Z,8.80
2017-07-05T06:11:45.133Z,9.50
2017-07-05T06:14:13.081Z,9.30
2017-07-05T06:16:41.004Z,8.80
2017-07-05T06:19:08.929Z,8.83
2017-07-05T06:21:36.883Z,8.10
2017-07-05T06:24:04.847Z,9.43
2017-07-05T06:26:32.769Z,8.43
2017-07-05T06:29:00.693Z,7.93
2017-07-05T06:31:28.601Z,7.63
2017-07-05T06:33:56.513Z,8.57
2017-07-05T06:36:24.433Z,8.33
2017-07-05T06:38:52.358Z,8.40
2017-07-05T06:41:20.270Z,15.30
2017-07-05T06:43:48.181Z,18.83
2017-07-05T06:46:16.113Z,13.43
2017-07-05T06:48:44.039Z,15.23
2017-07-05T06:51:11.990Z,14.80
2017-07-05T06:53:39.942Z,15.43
2017-07-05T06:56:07.867Z,14.13
2017-07-05T06:58:35.786Z,17.73
2017-07-05T07:01:03.730Z,15.37
2017-07-05T07:03:31.663Z,13.27
2017-07-05T07:05:59.586Z,18.73
2017-07-05T07:08:27.503Z,13.90
2017-07-05T07:10:55.496Z,12.20
2017-07-05T07:13:23.443Z,14.93
2017-07-05T07:15:51.411Z,14.53
2017-07-05T07:18:19.354Z,13.33
2017-07-05T07:20:47.290Z,15.30
2017-07-05T07:23:15.245Z,13.00
2017-07-05T07:25:43.553Z,11.80
2017-07-05T07:28:11.492Z,12.40
2017-07-05T07:30:39.416Z,14.67
2017-07-05T07:33:07.337Z,15.70
2017-07-05T07:35:35.310Z,10.13
2017-07-05T07:38:03.248Z,13.00
2017-07-05T07:40:31.190Z,17.23
2017-07-05T07:42:59.122Z,12.00
2017-07-05T07:45:27.617Z,9.70
2017-07-05T07:47:56.409Z,8.77
2017-07-05T07:50:24.433Z,10.50
2017-07-05T07:52:52.379Z,10.50
2017-07-05T07:55:20.445Z,11.03
2017-07-05T07:57:48.392Z,10.97
2017-07-05T08:00:16.341Z,9.87
2017-07-05T08:02:44.482Z,9.43
2017-07-05T08:05:12.419Z,8.37
2017-07-05T08:07:40.368Z,14.87
2017-07-05T08:10:08.318Z,14.90
2017-07-05T08:12:36.257Z,17.10
2017-07-05T08:15:04.181Z,16.57
2017-07-05T08:17:32.121Z,22.83
2017-07-05T08:20:00.065Z,22.33
2017-07-05T08:22:27.993Z,25.33
2017-07-05T08:24:55.919Z,28.70
2017-07-05T08:27:23.854Z,20.50
2017-07-05T08:29:51.786Z,21.93
2017-07-05T08:32:19.738Z,23.30
2017-07-05T08:34:47.671Z,20.40
2017-07-05T08:37:15.592Z,16.90
2017-07-05T08:39:43.521Z,19.33
2017-07-05T08:42:11.470Z,20.00
2017-07-05T08:44:39.393Z,14.27
2017-07-05T08:47:08.127Z,17.80
2017-07-05T08:49:36.063Z,14.50
2017-07-05T08:52:04.022Z,13.83
2017-07-05T08:54:31.977Z,16.20
2017-07-05T08:56:59.909Z,13.20
2017-07-05T08:59:27.835Z,13.20
2017-07-05T09:01:55.759Z,13.33
2017-07-05T09:04:23.722Z,13.33
2017-07-05T09:06:51.656Z,11.33
2017-07-05T09:09:19.590Z,14.37
2017-07-05T09:11:47.527Z,15.60
2017-07-05T09:14:15.467Z,23.00
2017-07-05T09:16:43.415Z,22.43
2017-07-05T09:19:11.340Z,18.13
2017-07-05T09:21:39.263Z,12.50
2017-07-05T09:24:07.190Z,16.00
2017-07-05T09:26:35.114Z,15.17
2017-07-05T09:29:03.037Z,15.50
2017-07-05T09:31:30.964Z,12.63
2017-07-05T09:33:58.895Z,16.73
2017-07-05T09:36:26.827Z,15.63
2017-07-05T09:38:54.766Z,14.17
2017-07-05T09:41:22.705Z,12.53
2017-07-05T09:43:50.625Z,12.30
2017-07-05T09:46:18.562Z,12.50
2017-07-05T09:48:46.499Z,17.43
2017-07-05T09:51:14.415Z,13.03
2017-07-05T09:53:42.377Z,9.60
2017-07-05T09:56:10.293Z,13.50
2017-07-05T09:58:38.237Z,9.77
2017-07-05T10:01:06.179Z,11.43
2017-07-05T10:03:34.112Z,9.23
2017-07-05T10:06:02.042Z,10.87
2017-07-05T10:08:29.946Z,8.17
2017-07-05T10:10:57.869Z,7.70
2017-07-05T10:13:25.789Z,8.43
2017-07-05T10:15:53.743Z,10.67
2017-07-05T10:18:21.696Z,13.70
2017-07-05T10:20:49.646Z,8.53
2017-07-05T10:23:17.609Z,10.43
2017-07-05T10:25:45.568Z,10.50
2017-07-05T10:28:13.527Z,7.10
2017-07-05T10:30:41.461Z,9.63
2017-07-05T10:33:09.414Z,8.77
2017-07-05T10:35:37.363Z,7.37
2017-07-05T10:38:05.306Z,7.87
2017-07-05T10:40:33.230Z,9.93
2017-07-05T10:43:01.178Z,8.33
2017-07-05T10:45:29.120Z,10.53
2017-07-05T10:47:57.057Z,13.07
2017-07-05T10:50:25.002Z,8.57
2017-07-05T10:52:52.939Z,10.30
2017-07-05T10:55:20.861Z,11.97
2017-07-05T10:57:48.786Z,9.03
2017-07-05T11:00:16.727Z,12.47
2017-07-05T11:02:44.669Z,13.30
2017-07-05T11:05:12.792Z,14.40
2017-07-05T11:07:40.729Z,10.70
2017-07-05T11:10:08.667Z,11.47
2017-07-05T11:12:36.602Z,10.03
2017-07-05T11:15:04.558Z,15.50
2017-07-05T11:17:32.517Z,9.90
2017-07-05T11:20:00.456Z,11.23
2017-07-05T11:22:28.388Z,8.37
2017-07-05T11:24:56.309Z,11.90
2017-07-05T11:27:24.237Z,11.57
2017-07-05T11:29:52.174Z,11.37
2017-07-05T11:32:20.104Z,10.03
2017-07-05T11:34:48.032Z,11.20
2017-07-05T11:37:15.954Z,8.90
2017-07-05T11:39:43.918Z,12.50
2017-07-05T11:42:11.865Z,8.23
2017-07-05T11:44:39.791Z,11.30
2017-07-05T11:47:07.716Z,8.40
2017-07-05T11:49:35.632Z,8.73
2017-07-05T11:52:03.594Z,9.10
2017-07-05T11:54:31.513Z,9.57
2017-07-05T11:56:59.460Z,8.07
2017-07-05T11:59:27.389Z,10.47
2017-07-05T12:01:55.331Z,8.10
2017-07-05T12:04:23.319Z,9.43
2017-07-05T12:06:51.290Z,8.70
2017-07-05T12:09:19.234Z,9.07
2017-07-05T12:11:47.167Z,10.20
2017-07-05T12:14:15.106Z,9.33
2017-07-05T12:16:43.063Z,8.00
2017-07-05T12:19:10.981Z,7.80
2017-07-05T12:21:38.898Z,10.10
2017-07-05T12:24:06.821Z,8.27
2017-07-05T12:26:34.765Z,9.00
2017-07-05T12:29:02.702Z,7.30
2017-07-05T12:31:30.729Z,8.10
2017-07-05T12:33:58.647Z,9.33
2017-07-05T12:36:26.747Z,9.83
2017-07-05T12:38:54.997Z,8.00
2017-07-05T12:41:22.938Z,7.93
2017-07-05T12:43:51.123Z,8.57
2017-07-05T12:46:19.302Z,7.60
2017-07-05T12:48:47.359Z,7.73
2017-07-05T12:51:15.275Z,11.23
2017-07-05T12:53:43.371Z,8.10
2017-07-05T12:56:11.376Z,8.67
2017-07-05T12:58:39.446Z,9.27
2017-07-05T13:01:07.425Z,7.70
2017-07-05T13:03:35.350Z,7.67
2017-07-05T13:06:03.289Z,7.87
2017-07-05T13:08:31.225Z,8.47
2017-07-05T13:10:59.197Z,8.73
2017-07-05T13:13:27.297Z,7.77
2017-07-05T13:15:55.244Z,7.80
2017-07-05T13:18:23.245Z,7.07
2017-07-05T13:20:51.503Z,7.30
2017-07-05T13:23:19.453Z,7.33
2017-07-05T13:25:47.462Z,7.70
2017-07-05T13:28:15.486Z,9.47
2017-07-05T13:30:43.427Z,6.67
2017-07-05T13:33:11.379Z,6.33
2017-07-05T13:35:39.339Z,6.37
2017-07-05T13:38:07.263Z,6.30
2017-07-05T13:40:35.191Z,5.60
2017-07-05T13:43:03.105Z,7.10
2017-07-05T13:45:31.045Z,5.57
2017-07-05T13:47:59.021Z,6.40
2017-07-05T13:50:26.947Z,5.40
2017-07-05T13:52:55.017Z,8.40
2017-07-05T13:55:22.948Z,5.10
2017-07-05T13:57:50.862Z,6.00
2017-07-05T14:00:18.830Z,5.30
2017-07-05T14:02:46.765Z,4.40
2017-07-05T14:05:14.699Z,4.17
2017-07-05T14:07:42.631Z,4.47
2017-07-05T14:10:10.591Z,4.77
2017-07-05T14:12:38.530Z,6.57
2017-07-05T14:15:06.477Z,5.03
2017-07-05T14:17:34.630Z,5.17
2017-07-05T14:20:03.359Z,6.30
2017-07-05T14:22:33.393Z,5.27
2017-07-05T14:25:03.500Z,9.13
2017-07-05T14:27:33.098Z,5.03
2017-07-05T14:30:03.100Z,5.37
2017-07-05T14:32:33.003Z,8.87
2017-07-05T14:35:02.926Z,8.30
2017-07-05T14:37:33.370Z,9.97
2017-07-05T14:40:05.447Z,5.90
2017-07-05T14:42:35.483Z,6.37
2017-07-05T14:45:05.330Z,8.60
2017-07-05T14:47:35.054Z,6.57
2017-07-05T14:50:04.951Z,4.83
2017-07-05T14:52:34.792Z,6.63
2017-07-05T14:55:04.278Z,8.43
2017-07-05T14:57:40.822Z,5.03
2017-07-05T15:00:12.073Z,5.50
2017-07-05T15:02:41.929Z,4.80
2017-07-05T15:05:11.852Z,5.80
2017-07-05T15:07:41.786Z,5.73
2017-07-05T15:10:10.774Z,6.30
2017-07-05T15:12:40.684Z,6.37
2017-07-05T15:15:10.190Z,9.90
2017-07-05T15:17:39.498Z,8.63
2017-07-05T15:20:08.653Z,6.07
2017-07-05T15:22:38.205Z,7.20
2017-07-05T15:25:07.818Z,9.70
2017-07-05T15:27:37.094Z,6.47
2017-07-05T15:30:06.559Z,5.40
2017-07-05T15:32:36.583Z,8.30
2017-07-05T15:35:05.816Z,10.97
2017-07-05T15:37:35.646Z,7.07
2017-07-05T15:40:05.031Z,6.63
2017-07-05T15:42:34.772Z,4.83
2017-07-05T15:45:04.402Z,6.70
2017-07-05T15:47:32.925Z,5.60
2017-07-05T15:50:02.168Z,7.93
2017-07-05T15:52:31.910Z,6.93
2017-07-05T15:55:01.841Z,6.10
2017-07-05T15:57:31.843Z,7.20
2017-07-05T16:00:01.876Z,7.17
2017-07-05T16:02:32.483Z,6.00
2017-07-05T16:05:02.459Z,7.90
2017-07-05T16:07:32.327Z,6.80
2017-07-05T16:10:02.243Z,8.40
2017-07-05T16:12:31.937Z,7.07
2017-07-05T16:15:01.715Z,5.07
2017-07-05T16:17:30.941Z,5.00
2017-07-05T16:20:00.696Z,4.83
2017-07-05T16:22:29.810Z,4.57
2017-07-05T16:24:59.625Z,10.50
2017-07-05T16:27:29.505Z,5.73
2017-07-05T16:29:59.144Z,5.17
2017-07-05T16:32:28.825Z,5.00
2017-07-05T16:34:58.628Z,5.50
2017-07-05T16:37:28.293Z,4.93
2017-07-05T16:39:58.003Z,4.63
2017-07-05T16:42:27.703Z,5.30
2017-07-05T16:44:57.529Z,7.73
2017-07-05T16:47:27.413Z,8.10
2017-07-05T16:49:55.335Z,3.77
2017-07-05T16:52:23.290Z,4.43
2017-07-05T16:54:51.206Z,4.43
2017-07-05T16:57:19.155Z,3.63
2017-07-05T16:59:47.150Z,4.20
2017-07-05T17:02:15.084Z,3.20
2017-07-05T17:04:43.017Z,3.73
2017-07-05T17:07:10.955Z,5.73
2017-07-05T17:09:38.903Z,3.40
2017-07-05T17:12:06.929Z,6.30
2017-07-05T17:14:34.815Z,3.07
2017-07-05T17:17:02.759Z,3.37
2017-07-05T17:19:30.694Z,3.10
2017-07-05T17:21:58.617Z,2.50
2017-07-05T17:24:26.564Z,2.70
2017-07-05T17:29:28.354Z,3.73
2017-07-05T17:31:56.318Z,3.13
2017-07-05T17:34:24.289Z,2.97
2017-07-05T17:36:52.227Z,2.57
2017-07-05T17:39:20.149Z,3.17
2017-07-05T17:41:48.134Z,2.93
2017-07-05T17:44:16.061Z,3.20
2017-07-05T17:46:44.015Z,4.10
2017-07-05T17:49:11.957Z,3.53
2017-07-05T17:51:40.395Z,2.40
2017-07-05T17:54:08.358Z,2.70
2017-07-05T17:56:36.294Z,2.73
2017-07-05T17:59:04.254Z,1.90
2017-07-05T18:04:24.834Z,1.90
2017-07-05T18:06:52.795Z,2.57
2017-07-05T18:09:20.786Z,2.43
2017-07-05T18:11:48.729Z,3.27
2017-07-05T18:14:16.644Z,2.40
2017-07-05T18:16:44.567Z,1.87
2017-07-05T18:19:12.538Z,2.30
2017-07-05T18:21:40.485Z,1.63
2017-07-05T18:24:08.414Z,3.83
2017-07-05T18:26:36.359Z,2.47
2017-07-05T18:29:04.301Z,1.93
2017-07-05T18:31:32.230Z,2.37
2017-07-05T18:34:00.176Z,2.07
2017-07-05T18:36:28.124Z,2.97
2017-07-05T18:38:56.522Z,2.50
2017-07-05T18:41:24.460Z,2.93
2017-07-05T18:43:52.397Z,4.17
2017-07-05T18:46:20.327Z,4.77
2017-07-05T18:48:48.250Z,4.27
2017-07-05T18:51:16.208Z,2.50
2017-07-05T18:53:44.158Z,6.67
2017-07-05T18:56:12.088Z,5.37
2017-07-05T18:58:40.022Z,6.37
2017-07-05T19:01:07.941Z,5.80
2017-07-05T19:03:35.884Z,7.03
2017-07-05T19:06:03.852Z,5.30
2017-07-05T19:08:38.941Z,4.63
2017-07-05T19:11:06.950Z,4.93
2017-07-05T19:13:34.874Z,2.80
2017-07-05T19:16:02.815Z,4.40
2017-07-05T19:18:30.741Z,2.27
2017-07-05T19:20:58.662Z,3.07
2017-07-05T19:23:26.621Z,2.83
2017-07-05T19:25:54.606Z,2.00
2017-07-05T19:28:22.694Z,1.90
2017-07-05T19:30:50.706Z,2.77
2017-07-05T19:33:18.643Z,1.77
2017-07-05T19:35:46.568Z,1.60
2017-07-05T19:38:14.520Z,1.37
2017-07-05T19:40:42.450Z,1.60
2017-07-05T19:43:10.411Z,3.63
2017-07-05T19:45:38.368Z,2.17
2017-07-05T19:48:06.299Z,1.70
2017-07-05T19:50:34.271Z,2.10
2017-07-05T19:53:02.209Z,3.53
2017-07-05T19:55:30.183Z,1.30
2017-07-05T19:57:58.138Z,1.73
2017-07-05T20:00:26.061Z,3.43
2017-07-05T20:02:54.036Z,2.43
2017-07-05T20:05:22.009Z,4.43
2017-07-05T20:07:50.078Z,2.77
2017-07-05T20:10:18.016Z,3.33
2017-07-05T20:12:45.934Z,2.10
2017-07-05T20:15:13.878Z,2.30
2017-07-05T20:17:41.809Z,1.87
2017-07-05T20:20:09.770Z,2.40
2017-07-05T20:22:37.696Z,4.47
2017-07-05T20:25:05.621Z,2.93
2017-07-05T20:27:33.566Z,2.13
2017-07-05T20:30:01.493Z,3.70
2017-07-05T20:32:29.433Z,5.43
2017-07-05T20:34:57.388Z,6.97
2017-07-05T20:37:25.346Z,7.50
2017-07-05T20:39:53.315Z,13.10
2017-07-05T20:42:21.290Z,7.67
2017-07-05T20:44:49.230Z,8.87
2017-07-05T20:47:17.175Z,7.27
2017-07-05T20:49:45.114Z,4.80
2017-07-05T20:52:13.099Z,6.60
2017-07-05T20:54:41.060Z,4.93
2017-07-05T20:57:09.022Z,4.37
2017-07-05T20:59:36.946Z,4.50
2017-07-05T21:02:04.926Z,5.90
2017-07-05T21:04:32.898Z,3.50
2017-07-05T21:07:00.825Z,2.50
2017-07-05T21:09:28.755Z,2.00
2017-07-05T21:11:56.695Z,2.47
2017-07-05T21:14:24.625Z,1.90
2017-07-05T21:16:52.594Z,2.03
2017-07-05T21:19:20.553Z,1.93
2017-07-05T21:21:48.474Z,3.43
2017-07-05T21:24:16.390Z,2.23
2017-07-05T21:26:44.318Z,2.17
2017-07-05T21:29:12.273Z,4.30
2017-07-05T21:31:40.202Z,2.53
2017-07-05T21:34:08.141Z,2.97
2017-07-05T21:36:36.045Z,4.10
2017-07-05T21:39:03.998Z,5.27
2017-07-05T21:41:31.931Z,12.27
2017-07-05T21:43:59.853Z,9.43
2017-07-05T21:46:27.806Z,14.63
2017-07-05T21:48:55.718Z,18.17
2017-07-05T21:51:24.234Z,15.33
2017-07-05T21:53:52.168Z,12.83
2017-07-05T21:56:20.098Z,12.63
2017-07-05T21:58:48.046Z,10.37
2017-07-05T22:01:15.969Z,10.00
2017-07-05T22:03:43.890Z,9.27
2017-07-05T22:06:11.842Z,5.90
2017-07-05T22:08:39.759Z,8.37
2017-07-05T22:11:07.686Z,6.30
2017-07-05T22:13:35.602Z,6.70
2017-07-05T22:16:03.553Z,6.17
2017-07-05T22:18:31.474Z,6.10
2017-07-05T22:20:59.407Z,5.97
2017-07-05T22:23:27.378Z,4.97
2017-07-05T22:25:55.302Z,6.17
2017-07-05T22:28:23.214Z,6.17
2017-07-05T22:30:51.134Z,6.87
2017-07-05T22:33:19.058Z,5.50
2017-07-05T22:35:47.013Z,7.33
2017-07-05T22:38:14.933Z,7.77
2017-07-05T22:40:42.860Z,7.20
2017-07-05T22:43:10.783Z,9.40
2017-07-05T22:45:38.690Z,4.67
2017-07-05T22:48:06.615Z,4.23
2017-07-05T22:50:34.539Z,6.77
2017-07-05T22:53:02.463Z,5.30
2017-07-05T22:55:30.385Z,5.47
2017-07-05T22:57:58.330Z,5.10
2017-07-05T23:00:26.274Z,5.60
2017-07-05T23:02:54.193Z,3.23
2017-07-05T23:05:22.118Z,4.63
2017-07-05T23:07:50.030Z,4.23
2017-07-05T23:10:17.954Z,6.63
2017-07-05T23:12:45.913Z,3.83
2017-07-05T23:15:13.834Z,3.97
2017-07-05T23:17:41.775Z,4.93
2017-07-05T23:20:09.690Z,3.07
2017-07-05T23:22:37.610Z,4.13
2017-07-05T23:25:05.591Z,4.40
2017-07-05T23:27:33.514Z,3.73
2017-07-05T23:30:01.449Z,3.90
2017-07-05T23:32:29.375Z,4.63
2017-07-05T23:34:57.289Z,4.80
2017-07-05T23:37:25.243Z,3.77
2017-07-05T23:39:53.344Z,5.40
2017-07-05T23:42:21.265Z,4.67
2017-07-05T23:44:49.191Z,3.90
2017-07-05T23:47:17.123Z,3.83
2017-07-05T23:49:45.083Z,3.17
2017-07-05T23:52:13.008Z,3.37
2017-07-05T23:54:40.931Z,3.83
2017-07-05T23:57:08.870Z,3.37
2017-07-05T23:59:36.797Z,3.23
